York, North Dakota
Current Conditions -  °F | °C
As of 3:15 AM on Wednesday 22 Oct 2014 (Local Time) from K9D7 Reporting Station
Clear Clear  
Wind Chill: 55°   Ceiling: Unl
Heat Index: 55°   Visibility: 10mi
Dew Point: 45°   Wind: 20mph
Humidity: 67%   Direction: 170°S
Pressure: 29.69"   Gusts: 24mph
Location:  48.31°N, 99.57°W
Report Text: K9D7 220815Z AUTO 17017G21KT 10SM CLR 13/07 A2969 RMK AO2
Loading
Personal Weather Stations






























Interactive Weather Map
Tropical Storm Tracking
New forecast layout! Learn more

10-Day Weather Forecast

Advertisements
Track Severe Weather on mobile